Inhangapi, Brazil
Current Conditions -  °F | °C
As of 4:00 PM on Wednesday 26 Nov 2014 (Local Time) from SBBE Reporting Station
Scattered Clouds Scattered Clouds  
Wind Chill: 86°   Ceiling: Unl
Heat Index: 95°   Visibility: 6mi
Dew Point: 75°   Wind: 12mph
Humidity: 70%   Direction: 360°N
Pressure: 29.74"   Gusts: NA
Location:  1.41°S, 47.88°W
Report Text: SBBE 261900Z 36010KT 9999 SCT040 30/24 Q1007
Loading
Personal Weather Stations






























Interactive Weather Map New forecast layout! Learn more

10-Day Weather Forecast

Advertisements
Track Severe Weather on mobile